sensor_id;sensor_type;location;lat;lon;timestamp;P1;durP1;ratioP1;P2;durP2;ratioP2
22184;SDS011;11258;52.516;13.318;2023-03-24T00:00:11;3.47;;;2.57;;
22184;SDS011;11258;52.516;13.318;2023-03-24T00:02:39;3.53;;;2.70;;
22184;SDS011;11258;52.516;13.318;2023-03-24T00:05:10;4.30;;;2.33;;
22184;SDS011;11258;52.516;13.318;2023-03-24T00:07:37;3.97;;;2.20;;
22184;SDS011;11258;52.516;13.318;2023-03-24T00:10:05;4.03;;;2.13;;
22184;SDS011;11258;52.516;13.318;2023-03-24T00:12:33;6.63;;;2.40;;
22184;SDS011;11258;52.516;13.318;2023-03-24T00:15:03;4.57;;;2.40;;
22184;SDS011;11258;52.516;13.318;2023-03-24T00:17:29;3.63;;;2.00;;
22184;SDS011;11258;52.516;13.318;2023-03-24T00:19:55;5.33;;;2.50;;
22184;SDS011;11258;52.516;13.318;2023-03-24T00:22:22;5.70;;;2.57;;
22184;SDS011;11258;52.516;13.318;2023-03-24T00:24:47;3.20;;;2.30;;
22184;SDS011;11258;52.516;13.318;2023-03-24T00:27:13;3.13;;;2.60;;
22184;SDS011;11258;52.516;13.318;2023-03-24T00:29:41;2.80;;;2.30;;
22184;SDS011;11258;52.516;13.318;2023-03-24T00:32:07;4.20;;;2.70;;
22184;SDS011;11258;52.516;13.318;2023-03-24T00:34:33;3.17;;;2.27;;
22184;SDS011;11258;52.516;13.318;2023-03-24T00:37:03;2.53;;;2.20;;
22184;SDS011;11258;52.516;13.318;2023-03-24T00:39:29;4.17;;;1.90;;
22184;SDS011;11258;52.516;13.318;2023-03-24T00:41:55;5.40;;;2.20;;
22184;SDS011;11258;52.516;13.318;2023-03-24T00:44:23;4.47;;;2.47;;
22184;SDS011;11258;52.516;13.318;2023-03-24T00:46:49;3.50;;;2.37;;
22184;SDS011;11258;52.516;13.318;2023-03-24T00:49:25;2.87;;;2.17;;
22184;SDS011;11258;52.516;13.318;2023-03-24T00:52:28;2.87;;;2.60;;
22184;SDS011;11258;52.516;13.318;2023-03-24T00:54:57;4.57;;;2.33;;
22184;SDS011;11258;52.516;13.318;2023-03-24T00:57:25;2.80;;;2.03;;
22184;SDS011;11258;52.516;13.318;2023-03-24T00:59:54;5.77;;;2.30;;
22184;SDS011;11258;52.516;13.318;2023-03-24T01:02:21;3.90;;;2.50;;
22184;SDS011;11258;52.516;13.318;2023-03-24T01:04:55;3.63;;;1.97;;
22184;SDS011;11258;52.516;13.318;2023-03-24T01:07:25;4.63;;;2.10;;
22184;SDS011;11258;52.516;13.318;2023-03-24T01:09:52;4.17;;;2.40;;
22184;SDS011;11258;52.516;13.318;2023-03-24T01:15:07;2.07;;;1.77;;
22184;SDS011;11258;52.516;13.318;2023-03-24T01:17:37;2.73;;;2.30;;
22184;SDS011;11258;52.516;13.318;2023-03-24T01:20:03;2.93;;;2.10;;
22184;SDS011;11258;52.516;13.318;2023-03-24T01:22:32;2.83;;;1.90;;
22184;SDS011;11258;52.516;13.318;2023-03-24T01:25:02;4.03;;;2.00;;
22184;SDS011;11258;52.516;13.318;2023-03-24T01:27:29;3.20;;;2.23;;
22184;SDS011;11258;52.516;13.318;2023-03-24T01:30:02;2.33;;;1.90;;
22184;SDS011;11258;52.516;13.318;2023-03-24T01:32:29;3.80;;;2.20;;
22184;SDS011;11258;52.516;13.318;2023-03-24T01:34:55;3.07;;;1.97;;
22184;SDS011;11258;52.516;13.318;2023-03-24T01:37:21;2.63;;;2.10;;
22184;SDS011;11258;52.516;13.318;2023-03-24T01:39:49;2.70;;;2.03;;
22184;SDS011;11258;52.516;13.318;2023-03-24T01:42:20;2.80;;;1.83;;
22184;SDS011;11258;52.516;13.318;2023-03-24T01:44:48;3.50;;;2.13;;
22184;SDS011;11258;52.516;13.318;2023-03-24T01:47:15;2.83;;;2.23;;
22184;SDS011;11258;52.516;13.318;2023-03-24T01:49:52;4.20;;;1.67;;
22184;SDS011;11258;52.516;13.318;2023-03-24T01:52:24;3.33;;;2.00;;
22184;SDS011;11258;52.516;13.318;2023-03-24T01:54:57;2.97;;;2.27;;
22184;SDS011;11258;52.516;13.318;2023-03-24T01:57:28;2.60;;;2.20;;
22184;SDS011;11258;52.516;13.318;2023-03-24T01:59:59;2.43;;;2.23;;
22184;SDS011;11258;52.516;13.318;2023-03-24T02:02:31;2.40;;;2.10;;
22184;SDS011;11258;52.516;13.318;2023-03-24T02:05:01;2.97;;;2.30;;
22184;SDS011;11258;52.516;13.318;2023-03-24T02:07:37;3.00;;;2.40;;
22184;SDS011;11258;52.516;13.318;2023-03-24T02:10:05;5.50;;;2.20;;
22184;SDS011;11258;52.516;13.318;2023-03-24T02:12:37;3.20;;;1.97;;
22184;SDS011;11258;52.516;13.318;2023-03-24T02:15:04;3.00;;;2.00;;
22184;SDS011;11258;52.516;13.318;2023-03-24T02:28:57;2.70;;;1.87;;
22184;SDS011;11258;52.516;13.318;2023-03-24T02:42:08;2.60;;;2.10;;
22184;SDS011;11258;52.516;13.318;2023-03-24T02:54:06;3.57;;;2.27;;
22184;SDS011;11258;52.516;13.318;2023-03-24T02:56:43;3.67;;;2.20;;
22184;SDS011;11258;52.516;13.318;2023-03-24T02:59:16;5.23;;;2.27;;
22184;SDS011;11258;52.516;13.318;2023-03-24T03:01:47;3.27;;;2.57;;
22184;SDS011;11258;52.516;13.318;2023-03-24T03:04:24;4.40;;;2.23;;
22184;SDS011;11258;52.516;13.318;2023-03-24T03:06:57;3.93;;;2.20;;
22184;SDS011;11258;52.516;13.318;2023-03-24T03:09:26;4.47;;;2.20;;
22184;SDS011;11258;52.516;13.318;2023-03-24T03:11:55;3.77;;;2.37;;
22184;SDS011;11258;52.516;13.318;2023-03-24T03:17:02;2.63;;;2.20;;
22184;SDS011;11258;52.516;13.318;2023-03-24T03:19:40;2.77;;;2.50;;
22184;SDS011;11258;52.516;13.318;2023-03-24T03:22:18;3.53;;;2.33;;
22184;SDS011;11258;52.516;13.318;2023-03-24T03:24:48;6.33;;;2.60;;
22184;SDS011;11258;52.516;13.318;2023-03-24T03:27:23;3.50;;;2.70;;
22184;SDS011;11258;52.516;13.318;2023-03-24T03:30:11;6.07;;;2.67;;
22184;SDS011;11258;52.516;13.318;2023-03-24T03:32:51;3.57;;;2.07;;
22184;SDS011;11258;52.516;13.318;2023-03-24T03:35:37;4.30;;;2.70;;
22184;SDS011;11258;52.516;13.318;2023-03-24T03:40:58;5.43;;;2.30;;
22184;SDS011;11258;52.516;13.318;2023-03-24T03:43:27;3.63;;;2.30;;
22184;SDS011;11258;52.516;13.318;2023-03-24T03:45:54;4.07;;;2.50;;
22184;SDS011;11258;52.516;13.318;2023-03-24T03:48:20;3.00;;;2.40;;
22184;SDS011;11258;52.516;13.318;2023-03-24T03:50:46;3.70;;;2.20;;
22184;SDS011;11258;52.516;13.318;2023-03-24T03:53:13;5.47;;;2.23;;
22184;SDS011;11258;52.516;13.318;2023-03-24T03:55:42;6.43;;;2.80;;
22184;SDS011;11258;52.516;13.318;2023-03-24T03:58:09;4.30;;;2.57;;
22184;SDS011;11258;52.516;13.318;2023-03-24T04:00:35;5.37;;;2.43;;
22184;SDS011;11258;52.516;13.318;2023-03-24T04:05:35;3.90;;;2.63;;
22184;SDS011;11258;52.516;13.318;2023-03-24T04:10:52;4.73;;;2.87;;
22184;SDS011;11258;52.516;13.318;2023-03-24T04:13:38;4.77;;;3.13;;
22184;SDS011;11258;52.516;13.318;2023-03-24T04:17:11;5.70;;;3.07;;
22184;SDS011;11258;52.516;13.318;2023-03-24T04:27:19;4.07;;;3.30;;
22184;SDS011;11258;52.516;13.318;2023-03-24T04:32:48;4.60;;;3.40;;
22184;SDS011;11258;52.516;13.318;2023-03-24T04:38:08;4.97;;;3.50;;
22184;SDS011;11258;52.516;13.318;2023-03-24T04:40:38;4.27;;;3.50;;
22184;SDS011;11258;52.516;13.318;2023-03-24T04:43:07;3.60;;;3.07;;
22184;SDS011;11258;52.516;13.318;2023-03-24T04:45:37;4.83;;;3.80;;
22184;SDS011;11258;52.516;13.318;2023-03-24T04:48:04;5.27;;;3.60;;
22184;SDS011;11258;52.516;13.318;2023-03-24T04:50:40;5.53;;;4.07;;
22184;SDS011;11258;52.516;13.318;2023-03-24T04:53:07;4.63;;;3.47;;
22184;SDS011;11258;52.516;13.318;2023-03-24T04:58:19;5.97;;;3.63;;
22184;SDS011;11258;52.516;13.318;2023-03-24T05:00:46;7.25;;;4.25;;
22184;SDS011;11258;52.516;13.318;2023-03-24T05:03:13;6.23;;;4.23;;
22184;SDS011;11258;52.516;13.318;2023-03-24T05:05:44;6.07;;;4.03;;
22184;SDS011;11258;52.516;13.318;2023-03-24T05:08:12;5.27;;;3.70;;
22184;SDS011;11258;52.516;13.318;2023-03-24T05:10:38;5.77;;;3.73;;
22184;SDS011;11258;52.516;13.318;2023-03-24T05:13:04;6.00;;;3.83;;
22184;SDS011;11258;52.516;13.318;2023-03-24T05:15:31;5.57;;;3.73;;
22184;SDS011;11258;52.516;13.318;2023-03-24T05:17:57;4.63;;;3.63;;
22184;SDS011;11258;52.516;13.318;2023-03-24T05:20:23;4.15;;;3.75;;
22184;SDS011;11258;52.516;13.318;2023-03-24T05:22:51;5.50;;;3.67;;
22184;SDS011;11258;52.516;13.318;2023-03-24T05:25:17;4.87;;;3.27;;
22184;SDS011;11258;52.516;13.318;2023-03-24T05:27:43;6.73;;;3.70;;
22184;SDS011;11258;52.516;13.318;2023-03-24T05:30:09;4.23;;;3.50;;
22184;SDS011;11258;52.516;13.318;2023-03-24T05:32:35;6.37;;;3.80;;
22184;SDS011;11258;52.516;13.318;2023-03-24T05:35:01;9.23;;;4.33;;
22184;SDS011;11258;52.516;13.318;2023-03-24T05:37:28;5.97;;;3.77;;
22184;SDS011;11258;52.516;13.318;2023-03-24T05:39:53;6.43;;;4.17;;
22184;SDS011;11258;52.516;13.318;2023-03-24T05:42:19;8.47;;;4.67;;
22184;SDS011;11258;52.516;13.318;2023-03-24T05:44:45;5.60;;;3.70;;
22184;SDS011;11258;52.516;13.318;2023-03-24T05:47:11;5.40;;;3.93;;
22184;SDS011;11258;52.516;13.318;2023-03-24T05:49:40;5.60;;;3.40;;
22184;SDS011;11258;52.516;13.318;2023-03-24T05:52:10;3.90;;;3.27;;
22184;SDS011;11258;52.516;13.318;2023-03-24T05:54:36;5.10;;;3.60;;
22184;SDS011;11258;52.516;13.318;2023-03-24T05:57:03;5.37;;;3.90;;
22184;SDS011;11258;52.516;13.318;2023-03-24T05:59:32;5.83;;;3.40;;
22184;SDS011;11258;52.516;13.318;2023-03-24T06:01:58;4.87;;;3.90;;
22184;SDS011;11258;52.516;13.318;2023-03-24T06:04:24;4.20;;;3.27;;
22184;SDS011;11258;52.516;13.318;2023-03-24T06:06:54;6.68;;;4.15;;
22184;SDS011;11258;52.516;13.318;2023-03-24T06:09:23;5.63;;;3.47;;
22184;SDS011;11258;52.516;13.318;2023-03-24T06:11:50;10.43;;;4.70;;
22184;SDS011;11258;52.516;13.318;2023-03-24T06:14:15;4.53;;;3.73;;
22184;SDS011;11258;52.516;13.318;2023-03-24T06:16:41;5.63;;;3.93;;
22184;SDS011;11258;52.516;13.318;2023-03-24T06:19:06;6.70;;;3.63;;
22184;SDS011;11258;52.516;13.318;2023-03-24T06:21:32;4.03;;;3.17;;
22184;SDS011;11258;52.516;13.318;2023-03-24T06:23:59;4.53;;;3.50;;
22184;SDS011;11258;52.516;13.318;2023-03-24T06:26:25;4.40;;;3.33;;
22184;SDS011;11258;52.516;13.318;2023-03-24T06:28:54;5.10;;;4.03;;
22184;SDS011;11258;52.516;13.318;2023-03-24T06:31:20;6.13;;;3.10;;
22184;SDS011;11258;52.516;13.318;2023-03-24T06:33:47;4.57;;;3.70;;
22184;SDS011;11258;52.516;13.318;2023-03-24T06:36:14;6.40;;;3.77;;
22184;SDS011;11258;52.516;13.318;2023-03-24T06:38:40;8.53;;;3.43;;
22184;SDS011;11258;52.516;13.318;2023-03-24T06:41:06;4.83;;;3.90;;
22184;SDS011;11258;52.516;13.318;2023-03-24T06:43:32;3.73;;;3.30;;
22184;SDS011;11258;52.516;13.318;2023-03-24T06:45:58;5.27;;;3.47;;
22184;SDS011;11258;52.516;13.318;2023-03-24T06:48:25;5.23;;;3.37;;
22184;SDS011;11258;52.516;13.318;2023-03-24T06:50:51;5.93;;;3.60;;
22184;SDS011;11258;52.516;13.318;2023-03-24T06:53:18;4.73;;;3.47;;
22184;SDS011;11258;52.516;13.318;2023-03-24T06:55:45;4.40;;;3.73;;
22184;SDS011;11258;52.516;13.318;2023-03-24T06:58:12;8.27;;;3.90;;
22184;SDS011;11258;52.516;13.318;2023-03-24T07:00:39;4.97;;;3.40;;
22184;SDS011;11258;52.516;13.318;2023-03-24T07:03:05;3.63;;;3.27;;
22184;SDS011;11258;52.516;13.318;2023-03-24T07:05:32;4.07;;;3.03;;
22184;SDS011;11258;52.516;13.318;2023-03-24T07:08:08;5.30;;;3.50;;
22184;SDS011;11258;52.516;13.318;2023-03-24T07:10:38;6.10;;;3.50;;
22184;SDS011;11258;52.516;13.318;2023-03-24T07:13:05;5.57;;;3.90;;
22184;SDS011;11258;52.516;13.318;2023-03-24T07:15:31;5.70;;;3.37;;
22184;SDS011;11258;52.516;13.318;2023-03-24T07:17:58;6.47;;;3.47;;
22184;SDS011;11258;52.516;13.318;2023-03-24T07:20:23;4.72;;;3.40;;
22184;SDS011;11258;52.516;13.318;2023-03-24T07:22:49;4.85;;;3.42;;
22184;SDS011;11258;52.516;13.318;2023-03-24T07:25:15;4.50;;;3.42;;
22184;SDS011;11258;52.516;13.318;2023-03-24T07:27:44;5.03;;;3.20;;
22184;SDS011;11258;52.516;13.318;2023-03-24T07:30:10;3.55;;;2.85;;
22184;SDS011;11258;52.516;13.318;2023-03-24T07:32:36;6.35;;;3.50;;
22184;SDS011;11258;52.516;13.318;2023-03-24T07:35:04;4.72;;;3.10;;
22184;SDS011;11258;52.516;13.318;2023-03-24T07:37:31;4.05;;;2.90;;
22184;SDS011;11258;52.516;13.318;2023-03-24T07:39:56;3.53;;;2.63;;
22184;SDS011;11258;52.516;13.318;2023-03-24T07:42:22;4.28;;;3.00;;
22184;SDS011;11258;52.516;13.318;2023-03-24T07:44:49;4.38;;;3.33;;
22184;SDS011;11258;52.516;13.318;2023-03-24T07:47:15;6.20;;;3.50;;
22184;SDS011;11258;52.516;13.318;2023-03-24T07:49:41;3.53;;;2.72;;
22184;SDS011;11258;52.516;13.318;2023-03-24T07:52:07;5.15;;;3.17;;
22184;SDS011;11258;52.516;13.318;2023-03-24T07:54:33;4.45;;;3.30;;
22184;SDS011;11258;52.516;13.318;2023-03-24T07:56:59;3.42;;;3.08;;
22184;SDS011;11258;52.516;13.318;2023-03-24T07:59:25;3.83;;;3.15;;
22184;SDS011;11258;52.516;13.318;2023-03-24T08:01:51;5.30;;;2.97;;
22184;SDS011;11258;52.516;13.318;2023-03-24T08:04:17;4.38;;;3.22;;
22184;SDS011;11258;52.516;13.318;2023-03-24T08:06:43;4.22;;;3.15;;
22184;SDS011;11258;52.516;13.318;2023-03-24T08:09:09;5.50;;;3.58;;
22184;SDS011;11258;52.516;13.318;2023-03-24T08:11:35;5.28;;;3.35;;
22184;SDS011;11258;52.516;13.318;2023-03-24T08:14:01;4.18;;;3.05;;
22184;SDS011;11258;52.516;13.318;2023-03-24T08:16:27;5.93;;;3.35;;
22184;SDS011;11258;52.516;13.318;2023-03-24T08:18:53;5.63;;;3.75;;
22184;SDS011;11258;52.516;13.318;2023-03-24T08:21:22;6.72;;;5.30;;
22184;SDS011;11258;52.516;13.318;2023-03-24T08:23:48;5.55;;;4.00;;
22184;SDS011;11258;52.516;13.318;2023-03-24T08:26:14;5.70;;;3.83;;
22184;SDS011;11258;52.516;13.318;2023-03-24T08:28:40;7.63;;;3.65;;
22184;SDS011;11258;52.516;13.318;2023-03-24T08:31:06;7.53;;;3.87;;
22184;SDS011;11258;52.516;13.318;2023-03-24T08:33:32;4.67;;;3.40;;
22184;SDS011;11258;52.516;13.318;2023-03-24T08:35:58;4.47;;;3.58;;
22184;SDS011;11258;52.516;13.318;2023-03-24T08:38:25;4.10;;;3.43;;
22184;SDS011;11258;52.516;13.318;2023-03-24T08:40:54;5.27;;;3.53;;
22184;SDS011;11258;52.516;13.318;2023-03-24T08:43:31;6.43;;;3.63;;
22184;SDS011;11258;52.516;13.318;2023-03-24T08:45:59;5.33;;;3.67;;
22184;SDS011;11258;52.516;13.318;2023-03-24T08:48:26;5.70;;;3.90;;
22184;SDS011;11258;52.516;13.318;2023-03-24T08:50:53;4.27;;;3.87;;
22184;SDS011;11258;52.516;13.318;2023-03-24T08:53:19;5.07;;;3.47;;
22184;SDS011;11258;52.516;13.318;2023-03-24T08:55:45;5.73;;;4.00;;
22184;SDS011;11258;52.516;13.318;2023-03-24T08:58:12;4.87;;;3.50;;
22184;SDS011;11258;52.516;13.318;2023-03-24T09:00:45;5.82;;;3.85;;
22184;SDS011;11258;52.516;13.318;2023-03-24T09:03:12;5.30;;;3.78;;
22184;SDS011;11258;52.516;13.318;2023-03-24T09:05:42;4.68;;;3.30;;
22184;SDS011;11258;52.516;13.318;2023-03-24T09:08:09;5.55;;;3.78;;
22184;SDS011;11258;52.516;13.318;2023-03-24T09:10:36;5.93;;;3.78;;
22184;SDS011;11258;52.516;13.318;2023-03-24T09:13:03;4.72;;;3.80;;
22184;SDS011;11258;52.516;13.318;2023-03-24T09:15:29;5.13;;;3.97;;
22184;SDS011;11258;52.516;13.318;2023-03-24T09:17:55;5.38;;;3.75;;
22184;SDS011;11258;52.516;13.318;2023-03-24T09:20:20;6.60;;;4.35;;
22184;SDS011;11258;52.516;13.318;2023-03-24T09:22:47;6.60;;;4.20;;
22184;SDS011;11258;52.516;13.318;2023-03-24T09:25:14;4.80;;;3.50;;
22184;SDS011;11258;52.516;13.318;2023-03-24T09:27:42;6.93;;;4.00;;
22184;SDS011;11258;52.516;13.318;2023-03-24T09:30:09;5.20;;;3.58;;
22184;SDS011;11258;52.516;13.318;2023-03-24T09:32:36;6.28;;;3.67;;
22184;SDS011;11258;52.516;13.318;2023-03-24T09:35:02;5.72;;;3.28;;
22184;SDS011;11258;52.516;13.318;2023-03-24T09:37:29;4.63;;;3.38;;
22184;SDS011;11258;52.516;13.318;2023-03-24T09:39:55;3.97;;;3.50;;
22184;SDS011;11258;52.516;13.318;2023-03-24T09:42:24;6.82;;;3.97;;
22184;SDS011;11258;52.516;13.318;2023-03-24T09:44:55;6.03;;;3.42;;
22184;SDS011;11258;52.516;13.318;2023-03-24T09:49:54;5.47;;;3.38;;
22184;SDS011;11258;52.516;13.318;2023-03-24T09:52:26;3.85;;;3.17;;
22184;SDS011;11258;52.516;13.318;2023-03-24T09:54:57;11.52;;;7.07;;
22184;SDS011;11258;52.516;13.318;2023-03-24T10:02:42;5.90;;;3.55;;
22184;SDS011;11258;52.516;13.318;2023-03-24T10:05:14;3.97;;;2.50;;
22184;SDS011;11258;52.516;13.318;2023-03-24T10:08:00;5.07;;;3.00;;
22184;SDS011;11258;52.516;13.318;2023-03-24T10:10:52;2.92;;;2.55;;
22184;SDS011;11258;52.516;13.318;2023-03-24T10:13:46;3.97;;;2.70;;
22184;SDS011;11258;52.516;13.318;2023-03-24T10:16:40;4.05;;;2.75;;
22184;SDS011;11258;52.516;13.318;2023-03-24T10:21:57;6.82;;;2.85;;
22184;SDS011;11258;52.516;13.318;2023-03-24T10:24:33;5.00;;;2.90;;
22184;SDS011;11258;52.516;13.318;2023-03-24T10:29:45;3.00;;;2.22;;
22184;SDS011;11258;52.516;13.318;2023-03-24T10:32:20;5.75;;;2.72;;
22184;SDS011;11258;52.516;13.318;2023-03-24T10:34:56;3.08;;;2.38;;
22184;SDS011;11258;52.516;13.318;2023-03-24T10:37:26;2.97;;;2.17;;
22184;SDS011;11258;52.516;13.318;2023-03-24T10:39:54;4.60;;;2.58;;
22184;SDS011;11258;52.516;13.318;2023-03-24T10:42:23;3.30;;;2.20;;
22184;SDS011;11258;52.516;13.318;2023-03-24T10:44:50;3.50;;;2.50;;
22184;SDS011;11258;52.516;13.318;2023-03-24T10:47:22;4.95;;;2.83;;
22184;SDS011;11258;52.516;13.318;2023-03-24T10:52:20;3.35;;;2.60;;
22184;SDS011;11258;52.516;13.318;2023-03-24T10:54:55;3.53;;;2.70;;
22184;SDS011;11258;52.516;13.318;2023-03-24T10:57:23;4.55;;;2.70;;
22184;SDS011;11258;52.516;13.318;2023-03-24T11:02:28;6.10;;;2.95;;
22184;SDS011;11258;52.516;13.318;2023-03-24T11:04:59;3.00;;;2.63;;
22184;SDS011;11258;52.516;13.318;2023-03-24T11:07:44;4.78;;;2.67;;
22184;SDS011;11258;52.516;13.318;2023-03-24T11:13:03;3.92;;;2.70;;
22184;SDS011;11258;52.516;13.318;2023-03-24T11:15:32;4.72;;;2.75;;
22184;SDS011;11258;52.516;13.318;2023-03-24T11:18:13;3.63;;;2.30;;
22184;SDS011;11258;52.516;13.318;2023-03-24T11:20:44;4.60;;;2.60;;
22184;SDS011;11258;52.516;13.318;2023-03-24T11:25:40;3.63;;;2.50;;
22184;SDS011;11258;52.516;13.318;2023-03-24T11:28:13;2.67;;;2.17;;
22184;SDS011;11258;52.516;13.318;2023-03-24T11:30:45;8.60;;;2.65;;
22184;SDS011;11258;52.516;13.318;2023-03-24T11:35:49;3.72;;;2.85;;
22184;SDS011;11258;52.516;13.318;2023-03-24T11:38:16;2.97;;;2.40;;
22184;SDS011;11258;52.516;13.318;2023-03-24T11:40:54;3.55;;;2.50;;
22184;SDS011;11258;52.516;13.318;2023-03-24T11:43:26;3.83;;;2.50;;
22184;SDS011;11258;52.516;13.318;2023-03-24T11:45:55;3.28;;;2.65;;
22184;SDS011;11258;52.516;13.318;2023-03-24T11:51:25;3.67;;;2.25;;
22184;SDS011;11258;52.516;13.318;2023-03-24T11:53:56;5.25;;;3.72;;
22184;SDS011;11258;52.516;13.318;2023-03-24T11:56:29;4.47;;;2.47;;
22184;SDS011;11258;52.516;13.318;2023-03-24T12:02:30;5.68;;;3.33;;
22184;SDS011;11258;52.516;13.318;2023-03-24T12:15:39;3.50;;;2.38;;
22184;SDS011;11258;52.516;13.318;2023-03-24T12:21:22;2.70;;;2.30;;
22184;SDS011;11258;52.516;13.318;2023-03-24T12:23:58;3.67;;;2.50;;
22184;SDS011;11258;52.516;13.318;2023-03-24T12:26:31;4.45;;;2.47;;
22184;SDS011;11258;52.516;13.318;2023-03-24T12:46:43;3.83;;;2.08;;
22184;SDS011;11258;52.516;13.318;2023-03-24T12:54:52;2.95;;;2.22;;
22184;SDS011;11258;52.516;13.318;2023-03-24T12:57:29;4.30;;;2.65;;
22184;SDS011;11258;52.516;13.318;2023-03-24T13:00:03;3.30;;;2.00;;
22184;SDS011;11258;52.516;13.318;2023-03-24T13:02:44;3.42;;;2.10;;
22184;SDS011;11258;52.516;13.318;2023-03-24T13:05:18;3.10;;;2.40;;
22184;SDS011;11258;52.516;13.318;2023-03-24T13:07:48;7.70;;;2.65;;
22184;SDS011;11258;52.516;13.318;2023-03-24T13:10:28;5.80;;;2.83;;
22184;SDS011;11258;52.516;13.318;2023-03-24T13:12:58;2.20;;;1.98;;
22184;SDS011;11258;52.516;13.318;2023-03-24T13:15:44;2.33;;;1.70;;
22184;SDS011;11258;52.516;13.318;2023-03-24T13:18:30;2.88;;;2.13;;
22184;SDS011;11258;52.516;13.318;2023-03-24T13:24:06;5.18;;;2.10;;
22184;SDS011;11258;52.516;13.318;2023-03-24T13:37:38;4.28;;;2.35;;
22184;SDS011;11258;52.516;13.318;2023-03-24T13:40:17;3.92;;;1.80;;
22184;SDS011;11258;52.516;13.318;2023-03-24T13:45:26;2.60;;;1.80;;
22184;SDS011;11258;52.516;13.318;2023-03-24T13:50:33;3.28;;;1.77;;
22184;SDS011;11258;52.516;13.318;2023-03-24T13:53:13;7.35;;;2.10;;
22184;SDS011;11258;52.516;13.318;2023-03-24T13:55:43;3.00;;;1.80;;
22184;SDS011;11258;52.516;13.318;2023-03-24T14:03:38;3.97;;;2.13;;
22184;SDS011;11258;52.516;13.318;2023-03-24T14:06:09;7.25;;;2.90;;
22184;SDS011;11258;52.516;13.318;2023-03-24T14:14:16;3.60;;;2.00;;
22184;SDS011;11258;52.516;13.318;2023-03-24T14:16:51;4.68;;;2.20;;
22184;SDS011;11258;52.516;13.318;2023-03-24T14:22:14;3.03;;;2.22;;
22184;SDS011;11258;52.516;13.318;2023-03-24T14:24:54;4.85;;;2.03;;
22184;SDS011;11258;52.516;13.318;2023-03-24T14:27:32;2.85;;;2.00;;
22184;SDS011;11258;52.516;13.318;2023-03-24T14:30:10;2.63;;;2.17;;
22184;SDS011;11258;52.516;13.318;2023-03-24T14:32:44;4.20;;;2.00;;
22184;SDS011;11258;52.516;13.318;2023-03-24T14:37:51;8.20;;;2.47;;
22184;SDS011;11258;52.516;13.318;2023-03-24T14:40:26;3.83;;;2.10;;
22184;SDS011;11258;52.516;13.318;2023-03-24T14:43:02;3.15;;;2.13;;
22184;SDS011;11258;52.516;13.318;2023-03-24T14:51:53;3.40;;;1.85;;
22184;SDS011;11258;52.516;13.318;2023-03-24T14:54:41;4.40;;;2.05;;
22184;SDS011;11258;52.516;13.318;2023-03-24T14:57:23;4.80;;;2.20;;
22184;SDS011;11258;52.516;13.318;2023-03-24T14:59:54;4.82;;;2.45;;
22184;SDS011;11258;52.516;13.318;2023-03-24T15:02:51;3.63;;;1.83;;
22184;SDS011;11258;52.516;13.318;2023-03-24T15:10:30;7.20;;;1.95;;
22184;SDS011;11258;52.516;13.318;2023-03-24T15:13:01;3.15;;;1.70;;
22184;SDS011;11258;52.516;13.318;2023-03-24T15:15:27;4.40;;;1.73;;
22184;SDS011;11258;52.516;13.318;2023-03-24T15:17:53;8.65;;;2.42;;
22184;SDS011;11258;52.516;13.318;2023-03-24T15:20:19;4.90;;;2.20;;
22184;SDS011;11258;52.516;13.318;2023-03-24T15:22:53;3.17;;;1.38;;
22184;SDS011;11258;52.516;13.318;2023-03-24T15:25:26;5.72;;;1.77;;
22184;SDS011;11258;52.516;13.318;2023-03-24T15:27:53;4.80;;;1.67;;
22184;SDS011;11258;52.516;13.318;2023-03-24T15:30:20;3.10;;;1.50;;
22184;SDS011;11258;52.516;13.318;2023-03-24T15:32:46;3.38;;;1.77;;
22184;SDS011;11258;52.516;13.318;2023-03-24T15:35:17;4.03;;;1.50;;
22184;SDS011;11258;52.516;13.318;2023-03-24T15:37:51;2.70;;;1.58;;
22184;SDS011;11258;52.516;13.318;2023-03-24T15:42:50;3.20;;;1.60;;
22184;SDS011;11258;52.516;13.318;2023-03-24T15:47:53;8.43;;;3.80;;
22184;SDS011;11258;52.516;13.318;2023-03-24T15:50:37;3.60;;;1.60;;
22184;SDS011;11258;52.516;13.318;2023-03-24T15:55:40;5.07;;;1.35;;
22184;SDS011;11258;52.516;13.318;2023-03-24T15:58:21;4.57;;;1.50;;
22184;SDS011;11258;52.516;13.318;2023-03-24T16:00:58;3.60;;;1.45;;
22184;SDS011;11258;52.516;13.318;2023-03-24T16:03:26;2.95;;;1.90;;
22184;SDS011;11258;52.516;13.318;2023-03-24T16:05:54;4.03;;;1.73;;
22184;SDS011;11258;52.516;13.318;2023-03-24T16:10:59;4.45;;;1.80;;
22184;SDS011;11258;52.516;13.318;2023-03-24T16:13:32;3.50;;;1.70;;
22184;SDS011;11258;52.516;13.318;2023-03-24T16:18:36;5.22;;;2.10;;
22184;SDS011;11258;52.516;13.318;2023-03-24T16:21:13;3.95;;;1.85;;
22184;SDS011;11258;52.516;13.318;2023-03-24T16:23:42;2.78;;;1.77;;
22184;SDS011;11258;52.516;13.318;2023-03-24T16:26:12;5.60;;;2.03;;
22184;SDS011;11258;52.516;13.318;2023-03-24T16:28:49;4.78;;;1.98;;
22184;SDS011;11258;52.516;13.318;2023-03-24T16:33:47;3.58;;;2.00;;
22184;SDS011;11258;52.516;13.318;2023-03-24T16:36:13;6.75;;;2.20;;
22184;SDS011;11258;52.516;13.318;2023-03-24T16:38:39;4.80;;;2.22;;
22184;SDS011;11258;52.516;13.318;2023-03-24T16:41:05;5.75;;;2.40;;
22184;SDS011;11258;52.516;13.318;2023-03-24T16:43:34;4.28;;;2.67;;
22184;SDS011;11258;52.516;13.318;2023-03-24T16:46:01;6.38;;;2.13;;
22184;SDS011;11258;52.516;13.318;2023-03-24T16:48:27;6.03;;;2.72;;
22184;SDS011;11258;52.516;13.318;2023-03-24T16:50:53;7.32;;;2.17;;
22184;SDS011;11258;52.516;13.318;2023-03-24T16:53:20;6.03;;;2.25;;
22184;SDS011;11258;52.516;13.318;2023-03-24T16:55:46;8.45;;;3.08;;
22184;SDS011;11258;52.516;13.318;2023-03-24T16:58:12;3.67;;;2.00;;
22184;SDS011;11258;52.516;13.318;2023-03-24T17:00:43;6.55;;;2.25;;
22184;SDS011;11258;52.516;13.318;2023-03-24T17:03:09;6.65;;;2.35;;
22184;SDS011;11258;52.516;13.318;2023-03-24T17:05:47;3.03;;;1.83;;
22184;SDS011;11258;52.516;13.318;2023-03-24T17:08:15;5.65;;;2.10;;
22184;SDS011;11258;52.516;13.318;2023-03-24T17:10:42;4.00;;;2.25;;
22184;SDS011;11258;52.516;13.318;2023-03-24T17:13:13;5.72;;;2.42;;
22184;SDS011;11258;52.516;13.318;2023-03-24T17:15:48;5.63;;;2.90;;
22184;SDS011;11258;52.516;13.318;2023-03-24T17:18:14;6.22;;;3.08;;
22184;SDS011;11258;52.516;13.318;2023-03-24T17:20:40;4.00;;;2.50;;
22184;SDS011;11258;52.516;13.318;2023-03-24T17:23:07;5.13;;;2.58;;
22184;SDS011;11258;52.516;13.318;2023-03-24T17:25:35;4.05;;;2.47;;
22184;SDS011;11258;52.516;13.318;2023-03-24T17:28:01;6.93;;;2.63;;
22184;SDS011;11258;52.516;13.318;2023-03-24T17:30:27;7.50;;;2.28;;
22184;SDS011;11258;52.516;13.318;2023-03-24T17:32:53;9.35;;;3.83;;
22184;SDS011;11258;52.516;13.318;2023-03-24T17:35:22;6.80;;;3.95;;
22184;SDS011;11258;52.516;13.318;2023-03-24T17:37:48;6.43;;;3.60;;
22184;SDS011;11258;52.516;13.318;2023-03-24T17:40:15;5.15;;;3.08;;
22184;SDS011;11258;52.516;13.318;2023-03-24T17:42:43;5.95;;;2.65;;
22184;SDS011;11258;52.516;13.318;2023-03-24T17:45:11;6.40;;;2.72;;
22184;SDS011;11258;52.516;13.318;2023-03-24T17:47:42;8.05;;;2.35;;
22184;SDS011;11258;52.516;13.318;2023-03-24T17:50:08;6.47;;;2.83;;
22184;SDS011;11258;52.516;13.318;2023-03-24T17:52:35;6.57;;;2.75;;
22184;SDS011;11258;52.516;13.318;2023-03-24T17:55:07;6.72;;;3.33;;
22184;SDS011;11258;52.516;13.318;2023-03-24T17:57:33;5.90;;;2.90;;
22184;SDS011;11258;52.516;13.318;2023-03-24T17:59:59;7.15;;;3.30;;
22184;SDS011;11258;52.516;13.318;2023-03-24T18:02:25;6.95;;;3.00;;